Time;durP1;ratioP1;P1;durP2;ratioP2;P2;SDS_P1;SDS_P2;PMS_P1;PMS_P2;Temp;Humidity;BMP_temperature;BMP_pressure;BME280_temperature;BME280_humidity;BME280_pressure;Samples;Min_cycle;Max_cycle;Signal;HPM_P1;HPM_P2
2022/09/16 00:00:50;;;;;;;0.80;0.80;;;25.90;74.30;;;;;;5021284;28;87969;-50
2022/09/16 00:03:18;;;;;;;0.80;0.60;;;25.90;73.20;;;;;;5021765;28;87042;-50
2022/09/16 00:05:47;;;;;;;1.00;0.70;;;25.80;73.30;;;;;;5022063;28;86283;-50
2022/09/16 00:08:15;;;;;;;0.67;0.67;;;25.80;73.20;;;;;;5021192;28;88866;-50
2022/09/16 00:10:43;;;;;;;2.57;0.87;;;25.80;73.10;;;;;;5021480;28;88579;-50
2022/09/16 00:13:12;;;;;;;1.70;0.83;;;25.80;73.10;;;;;;5022155;28;87869;-50
2022/09/16 00:15:42;;;;;;;0.57;0.57;;;25.80;73.40;;;;;;5020510;28;87016;-50
2022/09/16 00:18:11;;;;;;;0.60;0.53;;;25.80;73.40;;;;;;5020694;28;89265;-50
2022/09/16 00:20:44;;;;;;;1.37;0.87;;;25.80;73.10;;;;;;5019400;28;88485;-50
2022/09/16 00:23:11;;;;;;;2.20;1.13;;;25.80;73.10;;;;;;5021969;28;87101;-50
2022/09/16 00:25:39;;;;;;;0.93;0.60;;;25.80;72.90;;;;;;5021533;28;87050;-50
2022/09/16 00:28:07;;;;;;;1.50;0.63;;;25.80;73.70;;;;;;5021447;28;87986;-50
2022/09/16 00:30:37;;;;;;;0.63;0.63;;;25.80;73.10;;;;;;5021421;28;89013;-50
2022/09/16 00:33:05;;;;;;;0.40;0.40;;;25.80;73.00;;;;;;5021283;28;86975;-50
2022/09/16 00:35:32;;;;;;;1.27;0.63;;;25.80;73.00;;;;;;5020878;28;87104;-50
2022/09/16 00:38:00;;;;;;;1.20;0.80;;;25.80;73.10;;;;;;5020422;28;89744;-50
2022/09/16 00:40:28;;;;;;;1.33;0.50;;;25.80;74.00;;;;;;5019998;28;89638;-50
2022/09/16 00:42:58;;;;;;;0.67;0.60;;;25.80;73.10;;;;;;5020163;28;86953;-50
2022/09/16 00:45:30;;;;;;;1.57;1.13;;;25.80;73.40;;;;;;5000454;28;88573;-50
2022/09/16 00:48:00;;;;;;;3.93;1.00;;;25.70;73.30;;;;;;5022307;28;89192;-50
2022/09/16 00:50:30;;;;;;;0.53;0.50;;;25.70;73.50;;;;;;5040691;28;88636;-50
2022/09/16 00:52:58;;;;;;;1.13;0.60;;;25.70;73.70;;;;;;5040143;28;86993;-49
2022/09/16 00:55:27;;;;;;;0.53;0.40;;;25.80;74.20;;;;;;5040420;28;86409;-50
2022/09/16 00:57:56;;;;;;;0.90;0.70;;;25.70;74.70;;;;;;5038766;28;89335;-49
2022/09/16 01:00:24;;;;;;;0.73;0.40;;;;;;;;;;5040146;28;87143;-50
2022/09/16 01:02:52;;;;;;;0.40;0.40;;;25.80;82.30;;;;;;5039311;28;88096;-50
2022/09/16 01:05:22;;;;;;;1.13;0.60;;;25.70;78.70;;;;;;5041253;28;86868;-49
2022/09/16 01:07:50;;;;;;;0.80;0.50;;;25.70;77.10;;;;;;5039930;28;89307;-50
2022/09/16 01:10:20;;;;;;;0.40;0.40;;;25.70;76.70;;;;;;5040935;28;88656;-49
2022/09/16 01:12:49;;;;;;;0.40;0.40;;;25.70;78.50;;;;;;5038723;27;87037;-50
2022/09/16 01:15:17;;;;;;;2.43;0.60;;;25.70;77.20;;;;;;5040364;28;87160;-50
2022/09/16 01:18:08;;;;;;;0.83;0.60;;;25.70;77.90;;;;;;5039807;28;89309;-50
2022/09/16 01:20:54;;;;;;;0.40;0.40;;;25.70;78.60;;;;;;5039986;28;87634;-50
2022/09/16 01:23:36;;;;;;;4.10;1.07;;;25.70;78.00;;;;;;5031750;27;87083;-50
2022/09/16 01:26:14;;;;;;;0.70;0.53;;;25.60;77.60;;;;;;5038637;28;87392;-51
2022/09/16 01:29:01;;;;;;;2.87;0.83;;;25.70;80.20;;;;;;5036147;28;90027;-50
2022/09/16 01:31:32;;;;;;;0.57;0.50;;;25.60;77.60;;;;;;5032761;28;89970;-50
2022/09/16 01:34:03;;;;;;;2.23;0.80;;;25.70;82.60;;;;;;5037030;28;87146;-50
2022/09/16 01:36:37;;;;;;;1.83;0.60;;;25.60;75.80;;;;;;5031665;27;87588;-50
2022/09/16 01:39:13;;;;;;;0.90;0.70;;;25.60;76.70;;;;;;5033077;28;87905;-51
2022/09/16 01:41:46;;;;;;;1.83;0.90;;;25.60;77.10;;;;;;5031180;28;89212;-50
2022/09/16 01:44:19;;;;;;;0.80;0.60;;;25.60;77.20;;;;;;5041376;28;86945;-50
2022/09/16 01:46:49;;;;;;;1.27;0.70;;;25.70;75.10;;;;;;5045826;27;86747;-50
2022/09/16 01:49:20;;;;;;;0.70;0.63;;;25.60;74.60;;;;;;5033873;27;89066;-50
2022/09/16 01:51:50;;;;;;;0.93;0.70;;;25.60;75.40;;;;;;5042496;28;88575;-51
2022/09/16 01:54:20;;;;;;;0.93;0.60;;;25.60;72.50;;;;;;5045249;27;87734;-50
2022/09/16 01:56:52;;;;;;;1.60;0.70;;;25.60;71.40;;;;;;5056595;27;86998;-50
2022/09/16 01:59:22;;;;;;;0.97;0.93;;;25.60;71.10;;;;;;5039746;27;87811;-51
2022/09/16 02:01:52;;;;;;;2.37;1.27;;;25.60;71.10;;;;;;5034190;27;89120;-50
2022/09/16 02:04:24;;;;;;;3.07;1.67;;;25.60;70.70;;;;;;5039782;27;87041;-50
2022/09/16 02:06:52;;;;;;;4.93;2.37;;;25.60;70.30;;;;;;5043461;28;86695;-51
2022/09/16 02:09:22;;;;;;;2.80;1.90;;;25.60;70.30;;;;;;5041950;28;88770;-50
2022/09/16 02:11:50;;;;;;;6.90;2.93;;;25.50;70.10;;;;;;5038405;27;88684;-50
2022/09/16 02:14:19;;;;;;;6.77;3.20;;;25.50;70.10;;;;;;5055206;27;87436;-50
2022/09/16 02:16:48;;;;;;;8.13;3.93;;;25.50;70.10;;;;;;5055162;27;87594;-50
2022/09/16 02:19:20;;;;;;;6.97;4.07;;;25.50;70.10;;;;;;5041473;28;90081;-50
2022/09/16 02:21:48;;;;;;;9.93;4.87;;;25.50;70.20;;;;;;5044583;27;89626;-50
2022/09/16 02:24:16;;;;;;;9.33;4.87;;;25.50;70.10;;;;;;5062608;27;86980;-50
2022/09/16 02:26:47;;;;;;;10.33;5.47;;;25.50;70.20;;;;;;5057402;27;87064;-50
2022/09/16 02:29:17;;;;;;;9.67;5.40;;;25.50;70.20;;;;;;5045129;27;89196;-50
2022/09/16 02:31:45;;;;;;;9.47;6.23;;;25.50;70.40;;;;;;5044862;27;87554;-50
2022/09/16 02:34:14;;;;;;;9.20;5.10;;;25.50;70.40;;;;;;5048606;27;87025;-50
2022/09/16 02:36:45;;;;;;;15.17;6.50;;;25.50;70.60;;;;;;5062728;27;86106;-50
2022/09/16 02:39:15;;;;;;;12.23;6.37;;;25.50;70.70;;;;;;5043082;27;88953;-50
2022/09/16 02:41:42;;;;;;;16.07;6.87;;;25.50;70.90;;;;;;5053409;27;87916;-50
2022/09/16 02:44:10;;;;;;;15.00;6.83;;;25.50;71.10;;;;;;5042407;28;87963;-50
2022/09/16 02:46:45;;;;;;;13.60;7.20;;;25.50;71.10;;;;;;5044903;27;86979;-50
2022/09/16 02:49:19;;;;;;;12.57;6.90;;;25.50;71.70;;;;;;5063660;27;88422;-50
2022/09/16 02:51:53;;;;;;;13.57;7.23;;;25.50;72.30;;;;;;5063873;27;88746;-50
2022/09/16 02:54:23;;;;;;;13.60;6.90;;;25.60;71.60;;;;;;5022948;28;86848;-50
2022/09/16 02:56:51;;;;;;;15.27;7.70;;;25.50;71.80;;;;;;5046397;27;87107;-50
2022/09/16 02:59:19;;;;;;;16.57;8.30;;;25.50;72.10;;;;;;5047317;27;89207;-51
2022/09/16 03:01:47;;;;;;;14.73;7.43;;;25.40;72.20;;;;;;5055153;27;87339;-51
2022/09/16 03:04:15;;;;;;;13.47;7.60;;;;;;;;;;5063241;27;87004;-50
2022/09/16 03:06:43;;;;;;;20.43;9.87;;;25.40;81.00;;;;;;5060490;27;86976;-50
2022/09/16 03:09:13;;;;;;;17.23;10.13;;;25.50;77.40;;;;;;5062593;27;89910;-50
2022/09/16 03:11:54;;;;;;;16.47;8.90;;;25.40;77.30;;;;;;5061760;27;88653;-50
2022/09/16 03:14:59;;;;;;;16.03;9.03;;;25.50;75.30;;;;;;5049877;27;87195;-50
2022/09/16 03:17:34;;;;;;;19.43;10.80;;;25.40;74.60;;;;;;5042135;28;89043;-50
2022/09/16 03:20:05;;;;;;;18.70;9.87;;;25.40;71.40;;;;;;5041669;28;87846;-50
2022/09/16 03:22:42;;;;;;;20.87;10.43;;;25.40;70.80;;;;;;5042575;28;88447;-50
2022/09/16 03:25:16;;;;;;;24.03;10.87;;;25.40;70.60;;;;;;5042138;28;87015;-50
2022/09/16 03:27:46;;;;;;;19.33;11.27;;;25.40;70.90;;;;;;5040989;27;86308;-50
2022/09/16 03:30:14;;;;;;;22.63;10.27;;;25.40;71.30;;;;;;5041374;28;89023;-50
2022/09/16 03:32:44;;;;;;;25.40;12.73;;;25.40;71.80;;;;;;5041490;28;88985;-50
2022/09/16 03:35:13;;;;;;;20.20;10.93;;;25.40;73.20;;;;;;5042029;28;87862;-50
2022/09/16 03:37:42;;;;;;;24.60;11.60;;;25.40;76.60;;;;;;5041737;28;87080;-50
2022/09/16 03:40:13;;;;;;;18.67;12.10;;;25.40;75.90;;;;;;5041682;28;89249;-50
2022/09/16 03:42:41;;;;;;;21.37;11.53;;;25.40;74.60;;;;;;5041432;28;89053;-50
2022/09/16 03:45:10;;;;;;;19.83;10.97;;;25.40;77.30;;;;;;5042507;28;87142;-50
2022/09/16 03:47:38;;;;;;;26.73;13.37;;;25.40;77.40;;;;;;5041721;28;86773;-52
2022/09/16 03:50:08;;;;;;;28.73;16.03;;;25.40;76.20;;;;;;5047486;27;89123;-50
2022/09/16 03:52:36;;;;;;;26.40;15.00;;;25.40;76.50;;;;;;5061331;27;87837;-50
2022/09/16 03:55:05;;;;;;;30.03;16.27;;;25.40;78.50;;;;;;5060345;27;87210;-51
2022/09/16 03:57:35;;;;;;;23.07;13.80;;;25.40;77.80;;;;;;5042001;27;87057;-52
2022/09/16 04:00:03;;;;;;;24.83;14.33;;;25.40;74.80;;;;;;5039982;27;89917;-50
2022/09/16 04:02:31;;;;;;;27.47;13.93;;;25.30;73.30;;;;;;5040055;27;89893;-50
2022/09/16 04:04:59;;;;;;;25.60;14.17;;;25.30;73.60;;;;;;5040994;27;88899;-50
2022/09/16 04:07:27;;;;;;;22.10;13.73;;;25.40;73.90;;;;;;5039562;28;86977;-50
2022/09/16 04:09:55;;;;;;;28.17;14.67;;;25.40;75.10;;;;;;5041003;27;89190;-50
2022/09/16 04:12:23;;;;;;;26.30;14.30;;;25.40;74.90;;;;;;5040796;27;88677;-50
2022/09/16 04:14:52;;;;;;;26.77;13.63;;;25.30;74.90;;;;;;5041582;27;86767;-51
2022/09/16 04:17:20;;;;;;;29.40;14.80;;;25.30;75.20;;;;;;5038939;27;86665;-50
2022/09/16 04:19:48;;;;;;;26.10;14.17;;;25.40;77.30;;;;;;5041011;27;89122;-51
2022/09/16 04:22:16;;;;;;;26.53;14.50;;;25.40;73.00;;;;;;5035831;27;87811;-50
2022/09/16 04:24:43;;;;;;;23.80;14.43;;;25.30;71.30;;;;;;5039287;27;88032;-50
2022/09/16 04:27:11;;;;;;;20.07;12.63;;;25.40;71.40;;;;;;5042249;27;87229;-50
2022/09/16 04:29:39;;;;;;;24.70;14.90;;;25.40;71.40;;;;;;5039435;27;87862;-51
2022/09/16 04:32:09;;;;;;;25.70;14.90;;;25.40;71.40;;;;;;5039130;27;88676;-51
2022/09/16 04:34:36;;;;;;;24.67;13.80;;;25.40;71.40;;;;;;5060685;27;87124;-49
2022/09/16 04:37:04;;;;;;;24.17;14.37;;;25.70;71.70;;;;;;5058337;27;87148;-50
2022/09/16 04:39:32;;;;;;;24.67;13.20;;;25.40;71.60;;;;;;5051643;27;88898;-50
2022/09/16 04:42:00;;;;;;;26.07;15.17;;;25.40;71.50;;;;;;5039920;28;88342;-50
2022/09/16 04:44:29;;;;;;;23.80;14.10;;;25.40;71.70;;;;;;5046973;27;87131;-50
2022/09/16 04:46:57;;;;;;;24.90;13.77;;;25.40;71.80;;;;;;5042356;27;87066;-50
2022/09/16 04:49:26;;;;;;;24.50;15.00;;;25.40;71.70;;;;;;5023633;28;89876;-50
2022/09/16 04:51:54;;;;;;;25.57;14.00;;;25.40;72.00;;;;;;5020232;28;88736;-50
2022/09/16 04:54:22;;;;;;;23.50;13.43;;;25.40;72.10;;;;;;5020494;28;87006;-50
2022/09/16 04:56:50;;;;;;;26.40;13.37;;;25.40;72.50;;;;;;5020121;28;87019;-50
2022/09/16 04:59:18;;;;;;;23.63;14.23;;;25.40;72.60;;;;;;5020162;28;88168;-50
2022/09/16 05:01:46;;;;;;;24.80;14.23;;;25.40;72.80;;;;;;5020656;28;88838;-50
2022/09/16 05:04:13;;;;;;;24.83;13.33;;;25.40;72.90;;;;;;5020021;28;86928;-50
2022/09/16 05:06:43;;;;;;;24.70;13.30;;;25.40;73.20;;;;;;5026306;28;86418;-50
2022/09/16 05:09:11;;;;;;;23.80;13.43;;;25.40;73.40;;;;;;5023901;28;89174;-52
2022/09/16 05:11:41;;;;;;;21.90;12.03;;;25.40;73.50;;;;;;5024553;28;88960;-50
2022/09/16 05:14:10;;;;;;;22.40;12.60;;;25.40;73.50;;;;;;5025968;28;88118;-53
2022/09/16 05:16:38;;;;;;;21.67;12.80;;;25.40;73.80;;;;;;5023191;28;87122;-51
2022/09/16 05:19:06;;;;;;;21.27;11.97;;;25.40;73.80;;;;;;5024308;28;87892;-51
2022/09/16 05:21:35;;;;;;;19.67;11.67;;;25.40;74.00;;;;;;5024142;28;88796;-51
2022/09/16 05:24:06;;;;;;;20.60;11.77;;;25.40;74.00;;;;;;5022841;28;88429;-51
2022/09/16 05:26:35;;;;;;;22.97;12.20;;;25.50;74.20;;;;;;5028767;28;86958;-50
2022/09/16 05:29:04;;;;;;;20.47;11.47;;;25.50;74.30;;;;;;5023751;28;89069;-50
2022/09/16 05:31:33;;;;;;;20.43;10.73;;;25.40;74.30;;;;;;5024265;28;89048;-50
2022/09/16 05:34:02;;;;;;;20.93;10.83;;;25.50;74.40;;;;;;5024662;28;87025;-51
2022/09/16 05:36:32;;;;;;;21.33;11.10;;;25.50;74.40;;;;;;5023122;28;87038;-50
2022/09/16 05:38:59;;;;;;;19.07;11.50;;;25.40;74.50;;;;;;5023632;28;88850;-50
2022/09/16 05:41:49;;;;;;;17.13;10.73;;;25.50;74.70;;;;;;5025996;28;88665;-50
2022/09/16 05:44:17;;;;;;;19.73;11.20;;;25.50;74.80;;;;;;5029584;28;87094;-50
2022/09/16 05:46:45;;;;;;;15.43;10.90;;;25.50;74.80;;;;;;5025668;28;89104;-50
2022/09/16 05:49:19;;;;;;;21.20;11.43;;;25.50;74.90;;;;;;5044330;27;88101;-50
2022/09/16 05:51:47;;;;;;;18.00;9.67;;;25.50;75.00;;;;;;5045217;27;87039;-50
2022/09/16 05:54:17;;;;;;;17.70;11.03;;;25.50;75.10;;;;;;5063232;27;86971;-50
2022/09/16 05:56:45;;;;;;;18.33;10.63;;;25.50;75.10;;;;;;5046369;27;86254;-50
2022/09/16 05:59:14;;;;;;;17.20;8.90;;;25.60;75.10;;;;;;5045518;27;87025;-50
2022/09/16 06:01:42;;;;;;;22.77;9.67;;;25.50;75.10;;;;;;5048567;27;89083;-50
2022/09/16 06:04:12;;;;;;;17.80;9.10;;;25.60;75.30;;;;;;5059454;27;88090;-50
2022/09/16 06:06:41;;;;;;;16.13;9.53;;;25.50;75.30;;;;;;5063431;27;87079;-50
2022/09/16 06:09:10;;;;;;;15.13;9.80;;;25.50;75.30;;;;;;5050772;27;87012;-49
2022/09/16 06:11:39;;;;;;;14.30;8.13;;;25.50;75.70;;;;;;5049008;27;87655;-50
2022/09/16 06:14:07;;;;;;;13.37;8.57;;;25.50;75.80;;;;;;5046434;27;87025;-51
2022/09/16 06:16:36;;;;;;;12.80;8.50;;;25.50;76.10;;;;;;5062962;27;87118;-51
2022/09/16 06:19:05;;;;;;;14.40;8.70;;;25.50;76.20;;;;;;5055853;27;88969;-51
2022/09/16 06:21:33;;;;;;;14.63;9.10;;;25.50;76.40;;;;;;5051822;27;88778;-51
2022/09/16 06:24:02;;;;;;;14.40;7.93;;;25.50;76.40;;;;;;5049883;27;87068;-50
2022/09/16 06:26:30;;;;;;;13.70;8.10;;;25.50;76.40;;;;;;5056760;27;87087;-49
2022/09/16 06:28:58;;;;;;;12.00;8.03;;;25.50;76.80;;;;;;5043323;27;89898;-50
2022/09/16 06:31:27;;;;;;;17.47;8.17;;;25.50;76.90;;;;;;5061018;27;87650;-51
2022/09/16 06:33:57;;;;;;;13.07;7.53;;;25.60;77.10;;;;;;5061510;27;87158;-50
2022/09/16 06:36:29;;;;;;;12.50;7.63;;;25.60;77.20;;;;;;5061958;27;87189;-50
2022/09/16 06:38:57;;;;;;;11.50;6.87;;;25.60;77.20;;;;;;5046723;27;87819;-50
2022/09/16 06:41:25;;;;;;;12.13;7.67;;;25.60;77.50;;;;;;5055489;27;87650;-50
2022/09/16 06:43:53;;;;;;;10.63;6.50;;;25.60;77.50;;;;;;5043110;28;87187;-51
2022/09/16 06:46:22;;;;;;;12.57;7.20;;;25.60;78.70;;;;;;5044348;27;86351;-50
2022/09/16 06:48:51;;;;;;;10.57;6.40;;;25.60;78.10;;;;;;5040982;27;89077;-51
2022/09/16 06:51:22;;;;;;;12.27;7.27;;;25.60;78.50;;;;;;5042007;28;88988;-50
2022/09/16 06:53:50;;;;;;;13.63;7.00;;;25.60;78.90;;;;;;5041428;28;87979;-51
2022/09/16 06:56:19;;;;;;;12.37;7.50;;;25.60;79.00;;;;;;5041370;28;87098;-50
2022/09/16 06:58:48;;;;;;;12.70;7.03;;;25.70;80.50;;;;;;5041993;28;89076;-50
2022/09/16 07:01:17;;;;;;;12.57;6.87;;;25.70;81.30;;;;;;5040716;28;87562;-51
2022/09/16 07:03:46;;;;;;;10.90;6.37;;;25.70;80.90;;;;;;5043396;27;86880;-50
2022/09/16 07:06:14;;;;;;;12.83;7.10;;;25.60;76.30;;;;;;5043019;28;87058;-52
2022/09/16 07:08:44;;;;;;;8.67;5.73;;;25.70;77.80;;;;;;5041561;28;89226;-49
2022/09/16 07:11:12;;;;;;;13.23;6.93;;;25.70;78.20;;;;;;5041274;28;86557;-51
2022/09/16 07:13:41;;;;;;;11.53;6.87;;;25.70;78.10;;;;;;5042184;28;86898;-51
2022/09/16 07:16:09;;;;;;;11.90;6.20;;;25.70;78.70;;;;;;5040910;27;87016;-51
2022/09/16 07:18:40;;;;;;;8.80;5.70;;;25.80;79.20;;;;;;5047283;27;90325;-51
2022/09/16 07:21:10;;;;;;;9.97;5.40;;;25.80;79.70;;;;;;5052996;27;88152;-52
2022/09/16 07:23:38;;;;;;;9.73;5.60;;;25.80;80.40;;;;;;5041806;28;87025;-51
2022/09/16 07:26:09;;;;;;;7.53;4.43;;;25.70;81.80;;;;;;5043195;28;86910;-53
2022/09/16 07:28:37;;;;;;;11.83;3.90;;;25.70;82.30;;;;;;5041354;27;89088;-51
2022/09/16 07:31:06;;;;;;;4.83;3.10;;;25.70;83.30;;;;;;5050933;27;87551;-51
2022/09/16 07:33:36;;;;;;;8.83;3.80;;;25.70;84.20;;;;;;5048186;27;86874;-51
2022/09/16 07:36:05;;;;;;;4.07;2.20;;;25.60;86.10;;;;;;5062530;27;86253;-50
2022/09/16 07:38:33;;;;;;;10.53;2.90;;;25.70;88.90;;;;;;5062394;27;87792;-51
2022/09/16 07:41:04;;;;;;;3.13;1.70;;;;;;;;;;5062512;27;88908;-51
2022/09/16 07:43:34;;;;;;;2.40;2.03;;;;;;;;;;5062666;27;87713;-51
2022/09/16 07:46:02;;;;;;;5.10;1.87;;;;;;;;;;5054071;27;86993;-51
2022/09/16 07:48:31;;;;;;;2.37;1.90;;;;;;;;;;5041729;28;89409;-51
2022/09/16 07:51:02;;;;;;;2.30;1.60;;;;;;;;;;5041544;28;88461;-51
2022/09/16 07:53:31;;;;;;;2.47;2.13;;;;;;;;;;5041468;28;86971;-51
2022/09/16 07:56:02;;;;;;;2.53;1.60;;;;;;;;;;5041669;28;87057;-51
2022/09/16 07:58:30;;;;;;;2.33;1.40;;;25.50;90.30;;;;;;5041773;28;88098;-51
2022/09/16 08:00:59;;;;;;;3.70;1.40;;;25.60;90.40;;;;;;5042329;28;87557;-51
2022/09/16 08:03:32;;;;;;;2.90;1.00;;;;;;;;;;5042305;28;86951;-51
2022/09/16 08:06:00;;;;;;;3.70;0.90;;;25.50;90.10;;;;;;5042402;28;87110;-51
2022/09/16 08:08:28;;;;;;;2.30;1.30;;;25.50;90.60;;;;;;5040834;28;90245;-51
2022/09/16 08:10:56;;;;;;;1.70;1.17;;;25.60;90.80;;;;;;5041873;28;89678;-51
2022/09/16 08:13:25;;;;;;;1.47;1.20;;;25.50;90.10;;;;;;5042247;28;86916;-51
2022/09/16 08:15:53;;;;;;;2.23;0.83;;;25.60;90.30;;;;;;5041606;28;87801;-51
2022/09/16 08:18:22;;;;;;;0.60;0.60;;;25.60;90.60;;;;;;5041815;28;88239;-51
2022/09/16 08:20:50;;;;;;;1.40;0.93;;;25.50;90.80;;;;;;5041621;28;87617;-51
2022/09/16 08:23:18;;;;;;;0.73;0.60;;;25.60;90.50;;;;;;5034925;28;87010;-51
2022/09/16 08:25:46;;;;;;;1.87;0.97;;;25.60;90.20;;;;;;5041997;28;86370;-51
2022/09/16 08:28:14;;;;;;;1.80;0.80;;;25.60;90.10;;;;;;5029454;28;87951;-51
2022/09/16 08:30:42;;;;;;;1.10;0.80;;;25.60;90.10;;;;;;5021251;28;87769;-51
2022/09/16 08:33:10;;;;;;;1.23;0.90;;;25.60;90.50;;;;;;5021075;28;87774;-51
2022/09/16 08:35:40;;;;;;;1.13;0.83;;;25.60;90.20;;;;;;5021211;28;87100;-53
2022/09/16 08:38:08;;;;;;;1.80;1.20;;;25.50;89.30;;;;;;5039468;28;89100;-52
2022/09/16 08:40:36;;;;;;;0.67;0.63;;;25.50;88.80;;;;;;5041365;28;87358;-51
2022/09/16 08:43:08;;;;;;;3.50;0.83;;;25.50;89.20;;;;;;5019273;28;87067;-51
2022/09/16 08:45:42;;;;;;;0.77;0.50;;;25.50;89.60;;;;;;5020090;28;87679;-51
2022/09/16 08:48:24;;;;;;;3.73;0.87;;;25.50;89.60;;;;;;5034859;28;88878;-51
2022/09/16 08:50:57;;;;;;;3.43;0.67;;;25.50;89.20;;;;;;5039955;28;88871;-51
2022/09/16 08:53:32;;;;;;;1.80;0.70;;;25.50;89.30;;;;;;5041560;28;86917;-51
2022/09/16 08:56:02;;;;;;;5.70;0.83;;;25.50;89.30;;;;;;5039586;28;87137;-52
2022/09/16 08:58:32;;;;;;;2.53;1.00;;;25.50;89.60;;;;;;5036219;28;89864;-51
2022/09/16 09:01:02;;;;;;;1.40;0.70;;;25.50;90.20;;;;;;5041311;28;88488;-51
2022/09/16 09:03:36;;;;;;;1.13;0.60;;;25.50;90.20;;;;;;5040617;28;86997;-51
2022/09/16 09:06:11;;;;;;;4.37;1.07;;;25.50;90.20;;;;;;5037886;28;87292;-51
2022/09/16 09:08:56;;;;;;;0.70;0.40;;;25.40;89.80;;;;;;5035366;28;89033;-51
2022/09/16 09:11:27;;;;;;;1.17;0.80;;;25.40;89.80;;;;;;5041275;28;88846;-51
2022/09/16 09:14:02;;;;;;;2.77;0.97;;;25.40;89.50;;;;;;5041640;28;86927;-51
2022/09/16 09:16:36;;;;;;;1.30;0.60;;;25.40;89.80;;;;;;5041292;28;86218;-51
2022/09/16 09:19:18;;;;;;;1.17;0.60;;;25.30;90.30;;;;;;5040844;28;88292;-51
2022/09/16 09:21:50;;;;;;;2.13;0.77;;;25.30;90.30;;;;;;5040100;28;88729;-51
2022/09/16 09:24:30;;;;;;;0.60;0.50;;;25.40;90.60;;;;;;5039805;28;88047;-51
2022/09/16 09:26:59;;;;;;;0.90;0.60;;;25.30;90.70;;;;;;5040921;28;86826;-51
2022/09/16 09:29:43;;;;;;;0.57;0.40;;;25.40;90.60;;;;;;5041016;28;89139;-51
2022/09/16 09:32:18;;;;;;;0.50;0.47;;;25.30;90.60;;;;;;5041339;28;87860;-51
2022/09/16 09:34:55;;;;;;;2.37;0.43;;;25.30;90.20;;;;;;5040661;28;87038;-51
2022/09/16 09:37:41;;;;;;;1.27;0.67;;;25.30;90.30;;;;;;5040757;28;87048;-52
2022/09/16 09:40:11;;;;;;;0.77;0.37;;;25.30;90.50;;;;;;5040324;28;87889;-51
2022/09/16 09:42:41;;;;;;;0.43;0.33;;;25.30;89.70;;;;;;5040705;28;88888;-51
2022/09/16 09:45:16;;;;;;;2.43;0.40;;;25.20;89.10;;;;;;5040932;28;86955;-51
2022/09/16 09:47:46;;;;;;;2.03;0.63;;;25.20;89.30;;;;;;5039867;28;86983;-51
2022/09/16 09:50:17;;;;;;;0.73;0.40;;;25.30;90.20;;;;;;5039858;28;89981;-51
2022/09/16 09:52:50;;;;;;;1.37;0.70;;;25.30;90.80;;;;;;5040678;27;89897;-51
2022/09/16 09:55:18;;;;;;;1.23;0.50;;;25.30;90.00;;;;;;5044578;28;87156;-51
2022/09/16 09:58:00;;;;;;;0.87;0.37;;;25.20;89.20;;;;;;5044087;28;87013;-51
2022/09/16 10:00:28;;;;;;;0.30;0.30;;;25.20;89.70;;;;;;5043860;28;89282;-51
2022/09/16 10:03:02;;;;;;;0.33;0.30;;;25.30;88.70;;;;;;5043981;28;88781;-51
2022/09/16 10:05:31;;;;;;;1.23;0.60;;;25.50;90.40;;;;;;5044043;28;86753;-51
2022/09/16 10:08:18;;;;;;;1.80;0.70;;;25.40;91.00;;;;;;5031810;28;86275;-51
2022/09/16 10:10:49;;;;;;;0.83;0.50;;;25.30;90.30;;;;;;5023660;28;88268;-51
2022/09/16 10:13:18;;;;;;;0.57;0.40;;;25.30;88.90;;;;;;5023456;28;88835;-51
2022/09/16 10:15:46;;;;;;;0.37;0.37;;;25.30;89.00;;;;;;5023677;28;87844;-51
2022/09/16 10:18:24;;;;;;;0.73;0.40;;;25.40;89.30;;;;;;5023944;28;87849;-51
2022/09/16 10:21:00;;;;;;;0.43;0.43;;;25.30;90.30;;;;;;5023647;28;88063;-51
2022/09/16 10:23:29;;;;;;;0.80;0.40;;;25.30;90.20;;;;;;5022324;28;88805;-51
2022/09/16 10:26:18;;;;;;;0.20;0.20;;;25.40;90.30;;;;;;5022261;28;87049;-51
2022/09/16 10:28:59;;;;;;;1.13;0.50;;;25.30;89.80;;;;;;5022858;28;86992;-51
2022/09/16 10:31:30;;;;;;;0.20;0.20;;;25.20;90.20;;;;;;5022849;28;88056;-51
2022/09/16 10:34:01;;;;;;;0.57;0.30;;;25.30;90.40;;;;;;5023546;28;89147;-51
2022/09/16 10:36:32;;;;;;;0.93;0.27;;;25.30;90.40;;;;;;5022920;28;86993;-51
2022/09/16 10:39:02;;;;;;;4.20;0.40;;;25.30;88.90;;;;;;5022684;28;87600;-51
2022/09/16 10:41:33;;;;;;;0.50;0.40;;;25.30;89.70;;;;;;5023092;28;88970;-51
2022/09/16 10:44:03;;;;;;;0.23;0.20;;;25.30;88.70;;;;;;5023418;28;89708;-51
2022/09/16 10:46:32;;;;;;;0.57;0.57;;;25.30;87.70;;;;;;5023937;28;87003;-51
2022/09/16 10:49:00;;;;;;;0.30;0.30;;;25.30;86.70;;;;;;5043242;28;87104;-51
2022/09/16 10:51:32;;;;;;;0.57;0.40;;;25.40;86.70;;;;;;5042556;28;89139;-51
2022/09/16 10:54:03;;;;;;;1.03;0.77;;;25.40;85.60;;;;;;5042966;28;88854;-51
2022/09/16 10:56:32;;;;;;;0.43;0.40;;;25.30;85.50;;;;;;5043732;28;87037;-51
2022/09/16 10:59:04;;;;;;;0.93;0.40;;;25.30;80.80;;;;;;5042620;28;86074;-51
2022/09/16 11:01:41;;;;;;;0.60;0.40;;;25.30;79.50;;;;;;5043272;28;86861;-51
2022/09/16 11:04:33;;;;;;;0.77;0.30;;;25.30;75.70;;;;;;5042324;28;87745;-51
2022/09/16 11:07:10;;;;;;;0.20;0.20;;;25.30;74.20;;;;;;5041003;28;87867;-51
2022/09/16 11:09:45;;;;;;;0.43;0.27;;;25.30;72.70;;;;;;5023080;28;86945;-52
2022/09/16 11:12:39;;;;;;;1.40;0.20;;;25.30;71.90;;;;;;5022477;28;87177;-51
2022/09/16 11:15:14;;;;;;;0.60;0.33;;;25.30;71.50;;;;;;5006184;28;88887;-51
2022/09/16 11:17:50;;;;;;;0.57;0.40;;;25.30;71.00;;;;;;5022740;28;87834;-50
2022/09/16 11:20:34;;;;;;;0.20;0.20;;;25.30;70.60;;;;;;5022922;28;86899;-52
2022/09/16 11:23:05;;;;;;;0.50;0.40;;;25.30;71.30;;;;;;5022878;28;89006;-50
2022/09/16 11:25:40;;;;;;;1.70;0.50;;;25.30;70.10;;;;;;5022858;28;88860;-52
2022/09/16 11:28:42;;;;;;;0.50;0.50;;;25.30;70.00;;;;;;5022724;28;86975;-50
2022/09/16 11:31:15;;;;;;;0.27;0.23;;;25.30;69.70;;;;;;5022334;28;87090;-50
2022/09/16 11:33:47;;;;;;;0.57;0.30;;;25.30;69.40;;;;;;5021342;28;88813;-50
2022/09/16 11:36:39;;;;;;;1.13;0.40;;;25.30;69.10;;;;;;5021958;28;88779;-50
2022/09/16 11:39:16;;;;;;;0.67;0.30;;;25.30;68.80;;;;;;5014515;28;87133;-50
2022/09/16 11:41:48;;;;;;;0.33;0.27;;;25.30;68.70;;;;;;5022307;28;86955;-50
2022/09/16 11:44:28;;;;;;;0.53;0.20;;;25.20;68.50;;;;;;5022252;28;87969;-50
2022/09/16 11:47:04;;;;;;;0.33;0.33;;;25.20;68.40;;;;;;5020464;28;87837;-50
2022/09/16 11:49:48;;;;;;;0.27;0.27;;;25.20;68.10;;;;;;5021796;28;86875;-50
2022/09/16 11:52:25;;;;;;;0.90;0.20;;;25.20;68.00;;;;;;5022432;28;86346;-50
2022/09/16 11:55:01;;;;;;;1.30;0.20;;;25.20;67.80;;;;;;5021451;28;88990;-50
2022/09/16 11:57:32;;;;;;;2.77;0.50;;;25.20;67.80;;;;;;5022230;28;87849;-51
2022/09/16 12:00:02;;;;;;;0.30;0.27;;;25.20;67.60;;;;;;5021550;28;87912;-51
2022/09/16 12:02:35;;;;;;;0.30;0.30;;;25.20;67.50;;;;;;5022289;28;87106;-51
2022/09/16 12:05:06;;;;;;;1.70;0.50;;;25.20;67.30;;;;;;5022036;28;88986;-51
2022/09/16 12:07:36;;;;;;;0.43;0.37;;;25.20;67.30;;;;;;5021323;28;88844;-51
2022/09/16 12:10:06;;;;;;;1.73;0.30;;;25.20;67.10;;;;;;5021696;28;86980;-51
2022/09/16 12:12:41;;;;;;;0.40;0.40;;;25.20;67.00;;;;;;5020815;28;87165;-51
2022/09/16 12:15:16;;;;;;;0.50;0.50;;;25.20;66.90;;;;;;5021832;28;88898;-53
2022/09/16 12:17:51;;;;;;;1.77;0.80;;;25.20;66.80;;;;;;5021236;28;88938;-51
2022/09/16 12:20:20;;;;;;;1.40;0.37;;;25.20;66.80;;;;;;5021915;28;87035;-51
2022/09/16 12:22:50;;;;;;;0.37;0.37;;;25.20;66.70;;;;;;5021750;28;87792;-51
2022/09/16 12:25:21;;;;;;;1.53;0.33;;;25.20;66.50;;;;;;5020675;28;88547;-51
2022/09/16 12:27:52;;;;;;;0.20;0.20;;;25.30;66.60;;;;;;5021137;28;89623;-51
2022/09/16 12:30:22;;;;;;;4.07;0.60;;;25.30;66.50;;;;;;5021079;28;87696;-51
2022/09/16 12:32:57;;;;;;;2.80;0.60;;;25.20;66.30;;;;;;5022046;28;87083;-51
2022/09/16 12:35:28;;;;;;;0.70;0.40;;;25.20;66.30;;;;;;5021715;28;89304;-51
2022/09/16 12:37:57;;;;;;;1.77;0.83;;;25.20;66.30;;;;;;5021719;28;88827;-51
2022/09/16 12:40:26;;;;;;;5.27;0.73;;;25.20;66.20;;;;;;5021673;28;86798;-51
2022/09/16 12:43:21;;;;;;;0.57;0.53;;;25.20;66.00;;;;;;5022227;28;86334;-51
2022/09/16 12:46:08;;;;;;;0.90;0.50;;;25.20;66.00;;;;;;5021442;28;88037;-50
2022/09/16 12:48:58;;;;;;;3.13;0.60;;;25.20;66.10;;;;;;4995662;28;88958;-50
2022/09/16 12:51:37;;;;;;;0.60;0.50;;;25.20;65.80;;;;;;5040456;28;87969;-51
2022/09/16 12:54:16;;;;;;;0.97;0.70;;;25.20;65.70;;;;;;5041689;28;87035;-50
2022/09/16 12:56:55;;;;;;;0.53;0.53;;;25.20;65.70;;;;;;5041435;28;87737;-50
2022/09/16 12:59:39;;;;;;;0.37;0.37;;;25.20;65.60;;;;;;5041116;28;88667;-50
2022/09/16 13:02:11;;;;;;;0.53;0.50;;;25.50;65.70;;;;;;5041886;28;86973;-51
2022/09/16 13:04:43;;;;;;;0.40;0.40;;;25.10;65.40;;;;;;5041457;28;87050;-50